createdAt,value
2022-12-20T00:01:32.447Z,39.83
2022-12-20T00:04:00.333Z,38.55
2022-12-20T00:06:27.550Z,37.63
2022-12-20T00:09:01.303Z,35.10
2022-12-20T00:11:29.327Z,37.55
2022-12-20T00:13:56.630Z,33.17
2022-12-20T00:16:25.084Z,34.55
2022-12-20T00:18:53.854Z,38.50
2022-12-20T00:21:20.913Z,31.48
2022-12-20T00:23:48.436Z,37.17
2022-12-20T00:26:17.455Z,38.05
2022-12-20T00:28:45.711Z,36.50
2022-12-20T00:31:13.911Z,39.08
2022-12-20T00:33:41.488Z,33.15
2022-12-20T00:36:09.809Z,35.58
2022-12-20T00:38:37.032Z,36.10
2022-12-20T00:41:05.462Z,35.30
2022-12-20T00:43:33.271Z,35.65
2022-12-20T00:46:00.881Z,42.88
2022-12-20T00:48:28.592Z,38.25
2022-12-20T00:50:59.652Z,44.90
2022-12-20T00:53:26.868Z,41.75
2022-12-20T00:55:54.095Z,46.92
2022-12-20T00:58:21.353Z,45.85
2022-12-20T01:00:54.074Z,42.38
2022-12-20T01:03:23.886Z,44.72
2022-12-20T01:05:53.184Z,41.17
2022-12-20T01:08:20.604Z,35.17
2022-12-20T01:10:48.212Z,38.45
2022-12-20T01:13:15.293Z,32.03
2022-12-20T01:15:42.403Z,37.80
2022-12-20T01:18:09.832Z,34.47
2022-12-20T01:20:36.983Z,33.83
2022-12-20T01:23:04.380Z,38.92
2022-12-20T01:25:31.964Z,32.90
2022-12-20T01:27:59.168Z,31.02
2022-12-20T01:30:26.283Z,28.02
2022-12-20T01:32:53.535Z,27.45
2022-12-20T01:35:20.706Z,25.73
2022-12-20T01:37:47.808Z,24.80
2022-12-20T01:40:14.980Z,28.02
2022-12-20T01:42:42.158Z,25.73
2022-12-20T01:45:13.587Z,24.48
2022-12-20T01:47:40.917Z,33.78
2022-12-20T01:50:08.418Z,27.17
2022-12-20T01:52:37.818Z,25.95
2022-12-20T01:55:07.653Z,24.35
2022-12-20T01:57:40.280Z,26.10
2022-12-20T02:00:09.156Z,23.52
2022-12-20T02:02:41.436Z,27.08
2022-12-20T02:05:08.885Z,29.42
2022-12-20T02:07:37.433Z,25.05
2022-12-20T02:10:05.463Z,24.40
2022-12-20T02:12:38.927Z,29.75
2022-12-20T02:15:06.212Z,25.73
2022-12-20T02:17:45.562Z,24.55
2022-12-20T02:20:28.025Z,28.05
2022-12-20T02:23:13.728Z,24.20
2022-12-20T02:25:42.105Z,25.75
2022-12-20T02:28:09.235Z,27.27
2022-12-20T02:30:38.897Z,31.45
2022-12-20T02:33:09.038Z,31.10
2022-12-20T02:35:37.740Z,27.63
2022-12-20T02:38:24.832Z,27.42
2022-12-20T02:40:54.258Z,25.95
2022-12-20T02:43:41.378Z,24.88
2022-12-20T02:46:09.826Z,23.55
2022-12-20T02:48:37.778Z,25.17
2022-12-20T02:51:06.492Z,25.30
2022-12-20T02:53:34.284Z,23.23
2022-12-20T02:56:16.930Z,23.88
2022-12-20T02:58:49.724Z,25.30
2022-12-20T03:01:35.099Z,21.05
2022-12-20T03:04:04.032Z,21.70
2022-12-20T03:06:31.104Z,22.10
2022-12-20T03:08:58.240Z,23.38
2022-12-20T03:11:28.231Z,22.50
2022-12-20T03:13:56.256Z,21.95
2022-12-20T03:16:23.439Z,20.35
2022-12-20T03:18:50.683Z,24.98
2022-12-20T03:21:17.707Z,19.17
2022-12-20T03:23:45.026Z,20.45
2022-12-20T03:26:12.342Z,22.02
2022-12-20T03:28:44.106Z,22.70
2022-12-20T03:31:14.808Z,22.85
2022-12-20T03:33:46.853Z,25.13
2022-12-20T03:36:14.413Z,27.33
2022-12-20T03:38:41.852Z,26.77
2022-12-20T03:41:09.004Z,29.40
2022-12-20T03:43:36.063Z,24.98
2022-12-20T03:46:03.289Z,26.17
2022-12-20T03:48:35.057Z,28.50
2022-12-20T03:51:02.266Z,25.05
2022-12-20T03:53:29.953Z,27.17
2022-12-20T03:55:57.399Z,27.55
2022-12-20T03:58:24.947Z,25.77
2022-12-20T04:00:52.298Z,22.30
2022-12-20T04:03:37.116Z,19.48
2022-12-20T04:06:04.673Z,19.55
2022-12-20T04:08:32.373Z,20.35
2022-12-20T04:11:18.019Z,17.65
2022-12-20T04:13:51.750Z,16.73
2022-12-20T04:16:20.168Z,16.05
2022-12-20T04:18:48.254Z,19.65
2022-12-20T04:21:16.001Z,18.08
2022-12-20T04:23:47.509Z,18.13
2022-12-20T04:26:17.033Z,18.92
2022-12-20T04:28:44.254Z,18.85
2022-12-20T04:31:11.777Z,23.48
2022-12-20T04:33:39.889Z,18.27
2022-12-20T04:36:07.051Z,23.67
2022-12-20T04:38:35.093Z,19.45
2022-12-20T04:41:02.317Z,22.67
2022-12-20T04:43:39.064Z,21.15
2022-12-20T04:46:06.702Z,18.48
2022-12-20T04:48:55.812Z,24.02
2022-12-20T04:51:21.195Z,21.08
2022-12-20T04:53:48.401Z,19.65
2022-12-20T04:56:41.672Z,22.02
2022-12-20T04:59:12.804Z,23.40
2022-12-20T05:01:42.723Z,22.85
2022-12-20T05:04:11.284Z,23.60
2022-12-20T05:06:38.904Z,22.27
2022-12-20T05:09:06.106Z,19.08
2022-12-20T05:11:34.303Z,19.58
2022-12-20T05:14:03.547Z,29.25
2022-12-20T05:16:30.774Z,23.10
2022-12-20T05:18:58.753Z,24.45
2022-12-20T05:21:44.681Z,21.83
2022-12-20T05:27:33.487Z,19.45
2022-12-20T05:30:00.711Z,18.02
2022-12-20T05:32:29.568Z,15.85
2022-12-20T05:34:57.217Z,16.35
2022-12-20T05:37:24.552Z,13.50
2022-12-20T05:39:51.867Z,18.63
2022-12-20T05:42:24.191Z,16.15
2022-12-20T05:44:53.019Z,12.52
2022-12-20T05:47:21.682Z,12.38
2022-12-20T05:49:55.958Z,12.95
2022-12-20T05:52:23.080Z,12.52
2022-12-20T05:54:51.341Z,14.02
2022-12-20T05:57:21.306Z,15.45
2022-12-20T05:59:48.554Z,15.90
2022-12-20T06:02:23.276Z,11.20
2022-12-20T06:04:58.095Z,12.20
2022-12-20T06:07:26.202Z,10.32
2022-12-20T06:09:57.004Z,10.57
2022-12-20T06:12:31.950Z,10.27
2022-12-20T06:14:59.188Z,11.35
2022-12-20T06:17:26.435Z,14.60
2022-12-20T06:19:53.714Z,14.10
2022-12-20T06:22:20.927Z,11.60
2022-12-20T06:24:52.204Z,15.00
2022-12-20T06:27:24.548Z,10.75
2022-12-20T06:30:00.841Z,19.65
2022-12-20T06:32:34.988Z,21.52
2022-12-20T06:35:02.138Z,28.70
2022-12-20T06:37:29.299Z,36.47
2022-12-20T06:39:56.477Z,36.13
2022-12-20T06:42:23.925Z,34.55
2022-12-20T06:44:51.137Z,35.40
2022-12-20T06:47:18.417Z,40.95
2022-12-20T06:49:45.828Z,34.65
2022-12-20T06:52:20.504Z,35.92
2022-12-20T06:54:50.812Z,35.60
2022-12-20T06:57:20.138Z,31.30
2022-12-20T06:59:48.581Z,29.33
2022-12-20T07:02:16.212Z,34.97
2022-12-20T07:04:43.527Z,33.00
2022-12-20T07:07:11.873Z,28.10
2022-12-20T07:09:41.595Z,31.40
2022-12-20T07:12:09.518Z,43.75
2022-12-20T07:14:37.010Z,49.53
2022-12-20T07:17:04.858Z,50.25
2022-12-20T07:19:32.344Z,41.97
2022-12-20T07:21:59.674Z,49.70
2022-12-20T07:24:26.929Z,52.47
2022-12-20T07:26:54.029Z,47.33
2022-12-20T07:29:21.117Z,47.10
2022-12-20T07:31:48.320Z,50.35
2022-12-20T07:34:15.598Z,38.70
2022-12-20T07:36:43.023Z,44.67
2022-12-20T07:39:11.037Z,51.30
2022-12-20T07:41:38.282Z,49.00
2022-12-20T07:44:06.647Z,38.55
2022-12-20T07:46:33.937Z,45.92
2022-12-20T07:49:01.426Z,43.10
2022-12-20T07:51:35.231Z,54.13
2022-12-20T07:54:05.272Z,54.67
2022-12-20T07:56:40.701Z,59.10
2022-12-20T08:01:35.882Z,64.82
2022-12-20T08:04:08.731Z,54.80
2022-12-20T08:06:37.053Z,47.30
2022-12-20T08:09:05.903Z,51.15
2022-12-20T08:11:35.557Z,54.00
2022-12-20T08:14:02.809Z,41.55
2022-12-20T08:16:31.426Z,45.00
2022-12-20T08:18:58.725Z,52.13
2022-12-20T08:21:26.072Z,44.33
2022-12-20T08:23:53.312Z,61.58
2022-12-20T08:26:20.519Z,65.72
2022-12-20T08:28:47.673Z,50.45
2022-12-20T08:31:14.987Z,52.47
2022-12-20T08:33:42.126Z,66.20
2022-12-20T08:36:10.780Z,71.03
2022-12-20T08:38:38.564Z,69.72
2022-12-20T08:41:11.216Z,74.75
2022-12-20T08:43:38.587Z,67.55
2022-12-20T08:46:07.312Z,71.85
2022-12-20T08:48:34.586Z,81.43
2022-12-20T08:51:03.321Z,61.50
2022-12-20T08:53:30.451Z,67.90
2022-12-20T08:56:07.826Z,55.38
2022-12-20T08:58:35.939Z,54.75
2022-12-20T09:01:06.876Z,59.63
2022-12-20T09:03:35.213Z,57.20
2022-12-20T09:06:06.895Z,64.72
2022-12-20T09:08:34.886Z,54.85
2022-12-20T09:11:08.421Z,60.63
2022-12-20T09:13:43.147Z,64.28
2022-12-20T09:16:11.528Z,65.05
2022-12-20T09:18:38.642Z,77.03
2022-12-20T09:21:06.529Z,64.13
2022-12-20T09:23:34.439Z,67.10
2022-12-20T09:26:03.049Z,55.33
2022-12-20T09:28:30.583Z,54.08
2022-12-20T09:31:01.327Z,58.42
2022-12-20T09:33:29.533Z,62.33
2022-12-20T09:35:57.083Z,54.30
2022-12-20T09:38:24.242Z,66.93
2022-12-20T09:40:53.043Z,46.97
2022-12-20T09:43:21.264Z,39.60
2022-12-20T09:45:51.898Z,65.15
2022-12-20T09:48:23.410Z,56.33
2022-12-20T09:51:03.656Z,52.08
2022-12-20T09:53:49.301Z,55.67
2022-12-20T09:56:22.132Z,48.42
2022-12-20T09:58:49.501Z,50.08
2022-12-20T10:01:28.948Z,41.20
2022-12-20T10:04:02.708Z,43.63
2022-12-20T10:06:44.793Z,54.70
2022-12-20T10:09:17.392Z,47.05
2022-12-20T10:11:50.525Z,36.58
2022-12-20T10:14:26.032Z,39.05
2022-12-20T10:16:58.976Z,36.15
2022-12-20T10:19:34.528Z,20.23
2022-12-20T10:24:32.483Z,28.85
2022-12-20T10:27:07.987Z,34.58
2022-12-20T10:29:35.207Z,34.40
2022-12-20T10:32:02.592Z,42.33
2022-12-20T10:34:37.322Z,26.85
2022-12-20T10:37:11.755Z,25.40
2022-12-20T10:39:43.424Z,21.92
2022-12-20T10:42:26.794Z,20.60
2022-12-20T10:44:54.969Z,22.67
2022-12-20T10:47:31.960Z,29.73
2022-12-20T10:50:29.276Z,30.95
2022-12-20T10:53:17.290Z,15.43
2022-12-20T10:55:44.414Z,27.50
2022-12-20T10:58:32.469Z,16.80
2022-12-20T11:01:09.346Z,16.40
2022-12-20T11:03:50.286Z,18.83
2022-12-20T11:06:18.980Z,20.25
2022-12-20T11:08:51.474Z,18.15
2022-12-20T11:11:23.657Z,22.63
2022-12-20T11:13:52.277Z,18.23
2022-12-20T11:16:40.307Z,29.60
2022-12-20T11:19:14.850Z,24.17
2022-12-20T11:21:50.198Z,21.98
2022-12-20T11:24:23.182Z,18.13
2022-12-20T11:27:01.998Z,10.05
2022-12-20T11:29:41.253Z,15.82
2022-12-20T11:32:14.350Z,10.48
2022-12-20T11:34:53.448Z,13.52
2022-12-20T11:37:25.351Z,17.00
2022-12-20T11:40:11.178Z,18.40
2022-12-20T11:42:57.015Z,12.98
2022-12-20T11:45:29.374Z,9.30
2022-12-20T11:48:29.088Z,10.27
2022-12-20T11:51:15.481Z,8.80
2022-12-20T11:53:45.977Z,13.88
2022-12-20T11:56:15.758Z,11.38
2022-12-20T11:58:44.991Z,17.13
2022-12-20T12:01:14.700Z,18.02
2022-12-20T12:03:45.195Z,12.80
2022-12-20T12:06:18.161Z,16.48
2022-12-20T12:09:05.142Z,20.00
2022-12-20T12:12:05.912Z,14.50
2022-12-20T12:14:29.862Z,15.60
2022-12-20T12:16:59.306Z,16.63
2022-12-20T12:19:28.244Z,16.15
2022-12-20T12:22:05.852Z,13.50
2022-12-20T12:24:35.278Z,19.67
2022-12-20T12:27:02.620Z,14.35
2022-12-20T12:29:30.718Z,15.75
2022-12-20T12:32:16.353Z,17.38
2022-12-20T12:35:02.377Z,17.98
2022-12-20T12:38:04.697Z,18.40
2022-12-20T12:40:31.956Z,15.13
2022-12-20T12:43:08.166Z,22.48
2022-12-20T12:45:41.974Z,20.55
2022-12-20T12:48:15.431Z,22.80
2022-12-20T12:50:47.322Z,20.48
2022-12-20T12:53:17.306Z,20.00
2022-12-20T12:56:07.469Z,18.63
2022-12-20T12:58:35.443Z,17.27
2022-12-20T13:01:05.688Z,24.98
2022-12-20T13:03:51.655Z,23.52
2022-12-20T13:09:08.904Z,22.38
2022-12-20T13:11:46.891Z,17.83
2022-12-20T13:14:18.348Z,21.13
2022-12-20T13:17:11.382Z,22.98
2022-12-20T13:19:34.098Z,15.60
2022-12-20T13:22:07.111Z,18.38
2022-12-20T13:24:42.942Z,21.48
2022-12-20T13:27:16.235Z,20.05
2022-12-20T13:30:02.925Z,19.10
2022-12-20T13:32:48.647Z,27.17
2022-12-20T13:35:25.062Z,26.38
2022-12-20T13:37:55.166Z,23.08
2022-12-20T13:40:32.128Z,23.00
2022-12-20T13:43:02.681Z,20.65
2022-12-20T13:45:30.064Z,21.27
2022-12-20T13:48:02.033Z,20.88
2022-12-20T13:50:33.303Z,26.00
2022-12-20T13:53:00.677Z,19.33
2022-12-20T13:55:33.430Z,21.88
2022-12-20T13:58:05.105Z,29.60
2022-12-20T14:00:32.774Z,26.27
2022-12-20T14:03:01.341Z,20.20
2022-12-20T14:05:37.304Z,26.60
2022-12-20T14:08:06.615Z,28.80
2022-12-20T14:10:34.452Z,19.80
2022-12-20T14:13:01.885Z,20.85
2022-12-20T14:15:30.504Z,23.08
2022-12-20T14:17:57.916Z,23.42
2022-12-20T14:20:29.217Z,19.23
2022-12-20T14:23:05.940Z,20.15
2022-12-20T14:25:36.869Z,26.65
2022-12-20T14:28:04.255Z,27.92
2022-12-20T14:30:33.438Z,28.80
2022-12-20T14:33:00.823Z,27.02
2022-12-20T14:35:28.463Z,23.63
2022-12-20T14:37:57.100Z,24.65
2022-12-20T14:40:24.527Z,24.70
2022-12-20T14:42:51.767Z,27.92
2022-12-20T14:45:23.593Z,25.27
2022-12-20T14:47:56.831Z,29.17
2022-12-20T14:50:29.490Z,31.85
2022-12-20T14:52:57.469Z,42.03
2022-12-20T14:55:36.758Z,38.40
2022-12-20T14:58:23.654Z,36.38
2022-12-20T15:00:59.907Z,40.75
2022-12-20T15:03:27.759Z,38.33
2022-12-20T15:05:56.308Z,34.65
2022-12-20T15:08:23.661Z,32.30
2022-12-20T15:11:01.470Z,32.63
2022-12-20T15:13:33.415Z,36.10
2022-12-20T15:16:05.160Z,41.28
2022-12-20T15:18:32.784Z,46.90
2022-12-20T15:20:59.918Z,40.05
2022-12-20T15:23:27.026Z,45.17
2022-12-20T15:25:54.291Z,49.47
2022-12-20T15:28:22.928Z,55.45
2022-12-20T15:30:50.998Z,44.08
2022-12-20T15:33:22.809Z,43.83
2022-12-20T15:35:50.101Z,48.10
2022-12-20T15:38:34.762Z,45.88
2022-12-20T15:41:13.907Z,42.28
2022-12-20T15:43:41.137Z,55.35
2022-12-20T15:46:08.436Z,57.28
2022-12-20T15:48:35.525Z,50.67
2022-12-20T15:51:03.387Z,53.30
2022-12-20T15:53:34.430Z,39.08
2022-12-20T15:56:01.792Z,46.25
2022-12-20T15:58:29.010Z,43.42
2022-12-20T16:00:59.068Z,53.38
2022-12-20T16:03:30.571Z,43.90
2022-12-20T16:05:57.919Z,57.35
2022-12-20T16:08:25.163Z,54.88
2022-12-20T16:10:52.528Z,55.92
2022-12-20T16:13:24.253Z,63.22
2022-12-20T16:15:52.304Z,48.60
2022-12-20T16:18:19.631Z,50.58
2022-12-20T16:20:46.853Z,49.88
2022-12-20T16:23:18.621Z,48.22
2022-12-20T16:25:46.153Z,46.33
2022-12-20T16:28:13.427Z,51.97
2022-12-20T16:30:40.836Z,55.63
2022-12-20T16:33:11.837Z,63.38
2022-12-20T16:35:39.122Z,51.17
2022-12-20T16:38:06.405Z,55.92
2022-12-20T16:40:33.580Z,59.15
2022-12-20T16:43:00.868Z,61.70
2022-12-20T16:45:29.120Z,62.83
2022-12-20T16:47:56.587Z,55.05
2022-12-20T16:50:25.502Z,50.22
2022-12-20T16:52:52.703Z,54.28
2022-12-20T16:55:27.272Z,64.03
2022-12-20T16:57:54.683Z,60.80
2022-12-20T17:00:28.459Z,69.90
2022-12-20T17:02:56.367Z,59.58
2022-12-20T17:05:30.708Z,69.57
2022-12-20T17:07:58.389Z,66.97
2022-12-20T17:10:26.557Z,59.28
2022-12-20T17:12:54.579Z,56.00
2022-12-20T17:15:23.639Z,62.17
2022-12-20T17:17:51.405Z,53.63
2022-12-20T17:20:19.770Z,50.55
2022-12-20T17:22:51.078Z,53.65
2022-12-20T17:25:38.513Z,46.10
2022-12-20T17:28:06.690Z,57.50
2022-12-20T17:30:33.908Z,61.03
2022-12-20T17:33:01.295Z,59.67
2022-12-20T17:35:30.806Z,60.17
2022-12-20T17:37:58.087Z,68.32
2022-12-20T17:40:26.385Z,70.55
2022-12-20T17:42:53.920Z,53.97
2022-12-20T17:45:26.231Z,69.28
2022-12-20T17:47:54.164Z,58.38
2022-12-20T17:50:21.713Z,59.05
2022-12-20T17:52:49.220Z,63.90
2022-12-20T17:55:26.613Z,55.22
2022-12-20T17:57:54.360Z,47.47
2022-12-20T18:00:24.170Z,46.08
2022-12-20T18:02:51.793Z,43.88
2022-12-20T18:05:18.977Z,41.22
2022-12-20T18:07:49.892Z,49.72
2022-12-20T18:10:17.096Z,49.55
2022-12-20T18:12:44.292Z,40.90
2022-12-20T18:15:15.856Z,44.85
2022-12-20T18:17:44.825Z,38.70
2022-12-20T18:20:12.238Z,38.00
2022-12-20T18:22:39.611Z,42.78
2022-12-20T18:25:08.773Z,43.95
2022-12-20T18:27:39.931Z,38.33
2022-12-20T18:30:10.930Z,36.53
2022-12-20T18:32:38.214Z,39.03
2022-12-20T18:35:05.587Z,34.17
2022-12-20T18:37:32.698Z,33.15
2022-12-20T18:39:59.909Z,43.53
2022-12-20T18:42:27.016Z,36.70
2022-12-20T18:44:54.315Z,31.30
2022-12-20T18:47:21.394Z,35.40
2022-12-20T18:49:48.583Z,34.00
2022-12-20T18:52:16.146Z,42.25
2022-12-20T18:54:43.266Z,37.17
2022-12-20T18:57:10.511Z,33.90
2022-12-20T18:59:37.755Z,43.50
2022-12-20T19:02:05.021Z,34.30
2022-12-20T19:04:32.287Z,37.17
2022-12-20T19:07:02.304Z,43.08
2022-12-20T19:09:29.604Z,37.03
2022-12-20T19:11:57.980Z,33.13
2022-12-20T19:14:25.504Z,36.33
2022-12-20T19:16:52.821Z,37.33
2022-12-20T19:19:20.759Z,38.17
2022-12-20T19:21:47.856Z,39.75
2022-12-20T19:24:15.008Z,31.67
2022-12-20T19:26:42.197Z,37.58
2022-12-20T19:29:09.647Z,32.63
2022-12-20T19:31:37.878Z,35.00
2022-12-20T19:34:06.952Z,32.28
2022-12-20T19:36:44.647Z,43.05
2022-12-20T19:39:21.167Z,40.17
2022-12-20T19:42:15.500Z,37.97
2022-12-20T19:44:35.944Z,34.25
2022-12-20T19:47:06.245Z,39.60
2022-12-20T19:49:34.029Z,35.85
2022-12-20T19:52:01.222Z,40.55
2022-12-20T19:54:29.116Z,35.83
2022-12-20T19:56:56.202Z,35.40
2022-12-20T19:59:23.486Z,38.78
2022-12-20T20:01:51.029Z,33.25
2022-12-20T20:04:18.283Z,37.47
2022-12-20T20:06:45.408Z,37.35
2022-12-20T20:09:12.546Z,34.70
2022-12-20T20:11:39.790Z,39.95
2022-12-20T20:14:09.644Z,38.78
2022-12-20T20:16:37.796Z,44.40
2022-12-20T20:19:05.857Z,48.28
2022-12-20T20:21:35.110Z,48.00
2022-12-20T20:24:02.321Z,51.33
2022-12-20T20:26:32.441Z,53.30
2022-12-20T20:29:01.047Z,52.63
2022-12-20T20:31:28.380Z,60.60
2022-12-20T20:34:00.052Z,75.07
2022-12-20T20:36:28.239Z,60.35
2022-12-20T20:38:55.337Z,50.22
2022-12-20T20:41:24.222Z,40.00
2022-12-20T20:43:51.609Z,41.25
2022-12-20T20:46:19.104Z,41.33
2022-12-20T20:48:46.645Z,41.33
2022-12-20T20:51:14.030Z,42.50
2022-12-20T20:53:41.318Z,39.70
2022-12-20T20:56:08.697Z,37.40
2022-12-20T20:58:36.176Z,46.97
2022-12-20T21:01:04.222Z,40.42
2022-12-20T21:03:32.262Z,35.90
2022-12-20T21:06:36.607Z,41.58
2022-12-20T21:08:46.689Z,41.97
2022-12-20T21:11:14.484Z,35.83
2022-12-20T21:13:42.265Z,36.30
2022-12-20T21:16:11.019Z,35.08
2022-12-20T21:18:38.558Z,28.27
2022-12-20T21:21:06.787Z,32.20
2022-12-20T21:23:34.122Z,26.77
2022-12-20T21:26:01.203Z,29.00
2022-12-20T21:28:28.458Z,28.65
2022-12-20T21:30:59.927Z,27.42
2022-12-20T21:33:27.295Z,26.42
2022-12-20T21:36:09.010Z,28.20
2022-12-20T21:38:36.588Z,31.73
2022-12-20T21:41:04.952Z,31.60
2022-12-20T21:43:32.184Z,27.85
2022-12-20T21:45:59.274Z,26.55
2022-12-20T21:48:26.854Z,30.85
2022-12-20T21:51:00.039Z,25.48
2022-12-20T21:53:28.256Z,21.70
2022-12-20T21:55:56.563Z,22.63
2022-12-20T21:58:24.476Z,21.92
2022-12-20T22:00:55.786Z,21.00
2022-12-20T22:03:24.038Z,19.73
2022-12-20T22:05:53.007Z,22.30
2022-12-20T22:08:20.729Z,19.65
2022-12-20T22:10:50.154Z,26.10
2022-12-20T22:13:17.361Z,24.65
2022-12-20T22:15:44.494Z,25.52
2022-12-20T22:18:11.637Z,21.80
2022-12-20T22:20:38.797Z,26.58
2022-12-20T22:23:06.026Z,22.20
2022-12-20T22:25:35.744Z,20.60
2022-12-20T22:28:03.606Z,20.67
2022-12-20T22:30:30.687Z,23.73
2022-12-20T22:32:57.931Z,21.50
2022-12-20T22:35:25.324Z,19.67
2022-12-20T22:37:52.449Z,19.88
2022-12-20T22:40:19.809Z,22.85
2022-12-20T22:42:46.972Z,19.17
2022-12-20T22:45:14.122Z,21.02
2022-12-20T22:47:41.739Z,15.85
2022-12-20T22:50:09.284Z,18.00
2022-12-20T22:52:36.512Z,21.27
2022-12-20T22:55:03.599Z,18.13
2022-12-20T22:57:30.721Z,22.42
2022-12-20T22:59:58.966Z,24.35
2022-12-20T23:02:26.755Z,21.95
2022-12-20T23:04:54.202Z,25.73
2022-12-20T23:07:22.121Z,22.73
2022-12-20T23:09:49.200Z,22.25
2022-12-20T23:12:34.780Z,17.55
2022-12-20T23:15:22.144Z,16.85
2022-12-20T23:17:49.291Z,24.55
2022-12-20T23:20:35.816Z,15.07
2022-12-20T23:23:02.968Z,16.48
2022-12-20T23:25:30.009Z,19.23
2022-12-20T23:27:57.094Z,27.48
2022-12-20T23:30:25.094Z,48.95
2022-12-20T23:32:53.825Z,26.77
2022-12-20T23:35:21.596Z,21.45
2022-12-20T23:37:49.218Z,54.42
2022-12-20T23:40:17.216Z,15.75
2022-12-20T23:42:44.856Z,19.17
2022-12-20T23:45:12.057Z,17.77
2022-12-20T23:47:39.277Z,21.73
2022-12-20T23:50:06.652Z,17.52
2022-12-20T23:52:33.748Z,17.40
2022-12-20T23:55:01.025Z,25.25
2022-12-20T23:57:29.406Z,41.83
2022-12-20T23:59:56.471Z,20.25
